EZY217 EGPF-EHAM
Flight info
| Callsign | EZY217 |
|---|---|
| Flight time | 1h 11m |
| Altitude | 37000 |
| Route | NORBO Y96 HAVEN DCT ERKIT N110 DOLAS L603 LAMSO |
| Aircraft | A320/M-SDE3FGHIRWY/LB1 |
Departure
| Time | 2026-05-07 12:12 |
|---|---|
| Airport | Glasgow Airport (EGPF) |
Arrival
| Time | 2026-05-07 13:23 |
|---|---|
| Airport | Amsterdam Airport Schiphol (EHAM) |
| Time | Latitude | Longitude | Altitude | Speed | Heading |
|---|---|---|---|---|---|
| 2026-05-07 11:44 | 55.86565 | -4.43710 | 33 ft | 0 kts | 253° |
| 2026-05-07 11:53 | 55.86565 | -4.43709 | 33 ft | 1 kts | 253° |
| 2026-05-07 11:53 | 55.86572 | -4.43672 | 32 ft | 3 kts | 251° |
| 2026-05-07 11:54 | 55.86578 | -4.43632 | 32 ft | 3 kts | 276° |
| 2026-05-07 11:54 | 55.86577 | -4.43615 | 31 ft | 3 kts | 338° |
| 2026-05-07 11:54 | 55.86574 | -4.43613 | 33 ft | 1 kts | 344° |
| 2026-05-07 11:57 | 55.86576 | -4.43614 | 33 ft | 1 kts | 345° |
| 2026-05-07 11:57 | 55.86583 | -4.43617 | 33 ft | 2 kts | 345° |
| 2026-05-07 11:58 | 55.86608 | -4.43629 | 33 ft | 8 kts | 345° |
| 2026-05-07 11:58 | 55.86689 | -4.43667 | 33 ft | 16 kts | 349° |
| 2026-05-07 11:58 | 55.86768 | -4.43512 | 33 ft | 20 kts | 76° |
| 2026-05-07 11:58 | 55.86794 | -4.43317 | 31 ft | 19 kts | 72° |
| 2026-05-07 11:59 | 55.86839 | -4.43064 | 33 ft | 17 kts | 73° |
| 2026-05-07 11:59 | 55.86880 | -4.42941 | 33 ft | 14 kts | 31° |
| 2026-05-07 11:59 | 55.86963 | -4.42870 | 33 ft | 12 kts | 25° |
| 2026-05-07 11:59 | 55.87042 | -4.42810 | 33 ft | 12 kts | 20° |
| 2026-05-07 12:00 | 55.87125 | -4.42757 | 31 ft | 13 kts | 20° |
| 2026-05-07 12:00 | 55.87208 | -4.42702 | 34 ft | 12 kts | 20° |
| 2026-05-07 12:00 | 55.87285 | -4.42650 | 34 ft | 12 kts | 21° |
| 2026-05-07 12:00 | 55.87356 | -4.42603 | 34 ft | 11 kts | 20° |
| 2026-05-07 12:01 | 55.87416 | -4.42527 | 33 ft | 10 kts | 47° |
| 2026-05-07 12:01 | 55.87455 | -4.42453 | 35 ft | 7 kts | 46° |
| 2026-05-07 12:01 | 55.87495 | -4.42378 | 34 ft | 12 kts | 46° |
| 2026-05-07 12:01 | 55.87569 | -4.42241 | 33 ft | 19 kts | 44° |
| 2026-05-07 12:02 | 55.87677 | -4.42040 | 30 ft | 26 kts | 46° |
| 2026-05-07 12:02 | 55.87761 | -4.41886 | 31 ft | 9 kts | 42° |
| 2026-05-07 12:02 | 55.87776 | -4.41868 | 30 ft | 0 kts | 28° |
| 2026-05-07 12:04 | 55.87780 | -4.41865 | 30 ft | 2 kts | 27° |
| 2026-05-07 12:05 | 55.87789 | -4.41859 | 30 ft | 0 kts | 21° |
| 2026-05-07 12:08 | 55.87793 | -4.41856 | 30 ft | 1 kts | 21° |
| 2026-05-07 12:08 | 55.87806 | -4.41848 | 30 ft | 3 kts | 20° |
| 2026-05-07 12:08 | 55.87826 | -4.41839 | 30 ft | 3 kts | 7° |
| 2026-05-07 12:09 | 55.87842 | -4.41839 | 30 ft | 2 kts | 358° |
| 2026-05-07 12:09 | 55.87848 | -4.41839 | 30 ft | 0 kts | 358° |
| 2026-05-07 12:11 | 55.87868 | -4.41840 | 30 ft | 5 kts | 358° |
| 2026-05-07 12:11 | 55.87914 | -4.41875 | 31 ft | 9 kts | 314° |
| 2026-05-07 12:11 | 55.87921 | -4.41955 | 32 ft | 6 kts | 243° |
| 2026-05-07 12:12 | 55.87859 | -4.42079 | 33 ft | 38 kts | 227° |
| 2026-05-07 12:12 | 55.87500 | -4.42742 | 37 ft | 106 kts | 225° |
| 2026-05-07 12:12 | 55.86867 | -4.43920 | 114 ft | 149 kts | 226° |
| 2026-05-07 12:12 | 55.86196 | -4.45277 | 803 ft | 146 kts | 226° |
| 2026-05-07 12:13 | 55.85520 | -4.46624 | 1504 ft | 149 kts | 223° |
| 2026-05-07 12:13 | 55.84726 | -4.48008 | 1937 ft | 171 kts | 221° |
| 2026-05-07 12:13 | 55.83818 | -4.49567 | 2271 ft | 194 kts | 223° |
| 2026-05-07 12:13 | 55.82785 | -4.51352 | 2678 ft | 219 kts | 223° |
| 2026-05-07 12:14 | 55.81648 | -4.53335 | 3310 ft | 235 kts | 224° |
| 2026-05-07 12:14 | 55.80470 | -4.55399 | 4219 ft | 239 kts | 224° |
| 2026-05-07 12:14 | 55.79288 | -4.57481 | 5193 ft | 241 kts | 224° |
| 2026-05-07 12:14 | 55.77968 | -4.59330 | 6096 ft | 244 kts | 206° |
| 2026-05-07 12:15 | 55.76310 | -4.60018 | 6968 ft | 251 kts | 181° |
| 2026-05-07 12:15 | 55.74600 | -4.59198 | 7811 ft | 265 kts | 154° |
| 2026-05-07 12:15 | 55.73266 | -4.56846 | 8647 ft | 282 kts | 123° |
| 2026-05-07 12:15 | 55.72581 | -4.53515 | 9489 ft | 292 kts | 111° |
| 2026-05-07 12:16 | 55.72009 | -4.50023 | 10254 ft | 299 kts | 110° |
| 2026-05-07 12:16 | 55.71411 | -4.46336 | 10530 ft | 323 kts | 110° |
| 2026-05-07 12:16 | 55.70767 | -4.42375 | 10745 ft | 346 kts | 110° |
| 2026-05-07 12:16 | 55.70071 | -4.38140 | 10974 ft | 366 kts | 110° |
| 2026-05-07 12:17 | 55.69349 | -4.33762 | 11564 ft | 374 kts | 110° |
| 2026-05-07 12:17 | 55.68612 | -4.29311 | 12273 ft | 379 kts | 110° |
| 2026-05-07 12:17 | 55.67866 | -4.24806 | 12973 ft | 383 kts | 110° |
| 2026-05-07 12:17 | 55.67106 | -4.20247 | 13653 ft | 388 kts | 110° |
| 2026-05-07 12:18 | 55.66331 | -4.15645 | 14237 ft | 392 kts | 110° |
| 2026-05-07 12:18 | 55.65544 | -4.10998 | 14851 ft | 396 kts | 110° |
| 2026-05-07 12:18 | 55.64745 | -4.06301 | 15435 ft | 400 kts | 110° |
| 2026-05-07 12:18 | 55.63941 | -4.01579 | 15983 ft | 403 kts | 110° |
| 2026-05-07 12:19 | 55.63139 | -3.96861 | 16550 ft | 407 kts | 109° |
| 2026-05-07 12:19 | 55.62311 | -3.91988 | 17121 ft | 410 kts | 110° |
| 2026-05-07 12:19 | 55.61493 | -3.87198 | 17645 ft | 414 kts | 110° |
| 2026-05-07 12:19 | 55.60639 | -3.82229 | 18170 ft | 419 kts | 109° |
| 2026-05-07 12:20 | 55.59790 | -3.77294 | 18655 ft | 422 kts | 109° |
| 2026-05-07 12:20 | 55.58945 | -3.72394 | 19138 ft | 424 kts | 109° |
| 2026-05-07 12:20 | 55.58080 | -3.67395 | 19627 ft | 426 kts | 110° |
| 2026-05-07 12:20 | 55.57702 | -3.65216 | 19835 ft | 427 kts | 109° |
| 2026-05-07 12:22 | 55.57531 | -3.64133 | 20025 ft | 423 kts | 107° |
| 2026-05-07 12:22 | 55.56817 | -3.59079 | 20516 ft | 427 kts | 108° |
| 2026-05-07 12:22 | 55.55970 | -3.54032 | 20912 ft | 430 kts | 110° |
| 2026-05-07 12:23 | 55.55037 | -3.48986 | 21358 ft | 433 kts | 112° |
| 2026-05-07 12:23 | 55.54072 | -3.43935 | 21822 ft | 435 kts | 112° |
| 2026-05-07 12:23 | 55.53110 | -3.38860 | 22278 ft | 437 kts | 111° |
| 2026-05-07 12:23 | 55.52167 | -3.33744 | 22721 ft | 440 kts | 110° |
| 2026-05-07 12:24 | 55.51239 | -3.28586 | 23113 ft | 443 kts | 110° |
| 2026-05-07 12:24 | 55.50322 | -3.23380 | 23533 ft | 445 kts | 110° |
| 2026-05-07 12:24 | 55.49406 | -3.18148 | 23894 ft | 448 kts | 110° |
| 2026-05-07 12:24 | 55.48483 | -3.12898 | 24224 ft | 450 kts | 110° |
| 2026-05-07 12:25 | 55.47536 | -3.07622 | 24560 ft | 451 kts | 112° |
| 2026-05-07 12:25 | 55.46270 | -3.02589 | 24903 ft | 449 kts | 121° |
| 2026-05-07 12:25 | 55.44578 | -2.97995 | 25225 ft | 448 kts | 130° |
| 2026-05-07 12:25 | 55.42497 | -2.93914 | 25535 ft | 447 kts | 139° |
| 2026-05-07 12:26 | 55.40185 | -2.90244 | 25835 ft | 448 kts | 141° |
| 2026-05-07 12:26 | 55.37863 | -2.86576 | 26136 ft | 450 kts | 141° |
| 2026-05-07 12:26 | 55.35531 | -2.82885 | 26444 ft | 452 kts | 141° |
| 2026-05-07 12:26 | 55.33188 | -2.79180 | 26724 ft | 454 kts | 141° |
| 2026-05-07 12:27 | 55.30833 | -2.75468 | 26994 ft | 456 kts | 141° |
| 2026-05-07 12:27 | 55.28461 | -2.71739 | 27248 ft | 459 kts | 141° |
| 2026-05-07 12:27 | 55.26074 | -2.67997 | 27563 ft | 460 kts | 140° |
| 2026-05-07 12:27 | 55.23690 | -2.64260 | 27964 ft | 459 kts | 141° |
| 2026-05-07 12:28 | 55.21310 | -2.60533 | 28383 ft | 458 kts | 140° |
| 2026-05-07 12:28 | 55.18939 | -2.56827 | 28795 ft | 457 kts | 141° |
| 2026-05-07 12:28 | 55.16566 | -2.53127 | 29198 ft | 456 kts | 140° |
| 2026-05-07 12:28 | 55.14196 | -2.49446 | 29597 ft | 456 kts | 141° |
| 2026-05-07 12:29 | 55.11832 | -2.45780 | 30000 ft | 455 kts | 141° |
| 2026-05-07 12:29 | 55.09465 | -2.42104 | 30357 ft | 454 kts | 140° |
| 2026-05-07 12:29 | 55.07111 | -2.38448 | 30718 ft | 453 kts | 140° |
| 2026-05-07 12:29 | 55.04759 | -2.34809 | 31097 ft | 451 kts | 141° |
| 2026-05-07 12:30 | 55.02415 | -2.31193 | 31486 ft | 449 kts | 141° |
| 2026-05-07 12:30 | 55.00079 | -2.27600 | 31878 ft | 447 kts | 141° |
| 2026-05-07 12:30 | 54.97752 | -2.24023 | 32276 ft | 445 kts | 141° |
| 2026-05-07 12:30 | 54.95439 | -2.20474 | 32710 ft | 442 kts | 140° |
| 2026-05-07 12:31 | 54.93137 | -2.16950 | 33132 ft | 439 kts | 140° |
| 2026-05-07 12:31 | 54.90848 | -2.13449 | 33465 ft | 439 kts | 141° |
| 2026-05-07 12:31 | 54.88558 | -2.09952 | 33851 ft | 437 kts | 141° |
| 2026-05-07 12:31 | 54.86283 | -2.06477 | 34199 ft | 435 kts | 141° |
| 2026-05-07 12:32 | 54.84006 | -2.03004 | 34488 ft | 435 kts | 141° |
| 2026-05-07 12:32 | 54.81730 | -1.99537 | 34747 ft | 436 kts | 140° |
| 2026-05-07 12:32 | 54.79452 | -1.96078 | 34968 ft | 436 kts | 141° |
| 2026-05-07 12:32 | 54.77165 | -1.92617 | 35199 ft | 437 kts | 141° |
| 2026-05-07 12:33 | 54.72574 | -1.85681 | 35665 ft | 438 kts | 141° |
| 2026-05-07 12:33 | 54.70280 | -1.82218 | 35920 ft | 437 kts | 141° |
| 2026-05-07 12:33 | 54.67990 | -1.78763 | 36133 ft | 438 kts | 141° |
| 2026-05-07 12:34 | 54.65692 | -1.75301 | 36333 ft | 439 kts | 141° |
| 2026-05-07 12:34 | 54.63388 | -1.71835 | 36538 ft | 439 kts | 141° |
| 2026-05-07 12:34 | 54.61087 | -1.68381 | 36748 ft | 440 kts | 141° |
| 2026-05-07 12:34 | 54.58774 | -1.64917 | 36950 ft | 440 kts | 141° |
| 2026-05-07 12:35 | 54.56459 | -1.61456 | 37051 ft | 442 kts | 141° |
| 2026-05-07 12:35 | 54.54122 | -1.57973 | 37056 ft | 444 kts | 141° |
| 2026-05-07 12:35 | 54.49451 | -1.51020 | 37057 ft | 445 kts | 141° |
| 2026-05-07 12:36 | 54.44772 | -1.44073 | 37057 ft | 444 kts | 141° |
| 2026-05-07 12:36 | 54.40099 | -1.37153 | 37057 ft | 444 kts | 141° |
| 2026-05-07 12:37 | 54.35451 | -1.30296 | 37056 ft | 443 kts | 141° |
| 2026-05-07 12:37 | 54.30771 | -1.23425 | 37059 ft | 443 kts | 141° |
| 2026-05-07 12:38 | 54.26089 | -1.16558 | 37052 ft | 443 kts | 141° |
| 2026-05-07 12:38 | 54.22165 | -1.10813 | 37055 ft | 443 kts | 141° |
| 2026-05-07 12:39 | 54.17473 | -1.03964 | 37054 ft | 444 kts | 140° |
| 2026-05-07 12:39 | 54.12769 | -0.97126 | 37064 ft | 444 kts | 141° |
| 2026-05-07 12:40 | 54.08056 | -0.90303 | 37063 ft | 445 kts | 141° |
| 2026-05-07 12:40 | 54.03335 | -0.83501 | 37075 ft | 445 kts | 143° |
| 2026-05-07 12:41 | 53.98289 | -0.77452 | 37083 ft | 444 kts | 146° |
| 2026-05-07 12:41 | 53.93210 | -0.71509 | 37090 ft | 444 kts | 146° |
| 2026-05-07 12:42 | 53.88132 | -0.65566 | 37091 ft | 443 kts | 146° |
| 2026-05-07 12:42 | 53.83052 | -0.59635 | 37098 ft | 443 kts | 146° |
| 2026-05-07 12:43 | 53.77977 | -0.53733 | 37095 ft | 442 kts | 146° |
| 2026-05-07 12:43 | 53.72900 | -0.47860 | 37091 ft | 442 kts | 146° |
| 2026-05-07 12:44 | 53.67817 | -0.42011 | 37093 ft | 442 kts | 146° |
| 2026-05-07 12:44 | 53.62771 | -0.36199 | 37098 ft | 442 kts | 146° |
| 2026-05-07 12:45 | 53.57819 | -0.29952 | 37095 ft | 442 kts | 136° |
| 2026-05-07 12:45 | 53.53931 | -0.21954 | 37085 ft | 443 kts | 127° |
| 2026-05-07 12:46 | 53.50224 | -0.13675 | 37079 ft | 443 kts | 128° |
| 2026-05-07 12:46 | 53.46530 | -0.05477 | 37074 ft | 443 kts | 128° |
| 2026-05-07 12:47 | 53.42798 | 0.02762 | 37058 ft | 443 kts | 128° |
| 2026-05-07 12:47 | 53.39070 | 0.10983 | 37068 ft | 443 kts | 128° |
| 2026-05-07 12:48 | 53.35334 | 0.19204 | 37070 ft | 443 kts | 128° |
| 2026-05-07 12:48 | 53.31583 | 0.27405 | 37074 ft | 444 kts | 128° |
| 2026-05-07 12:49 | 53.27825 | 0.35589 | 37082 ft | 444 kts | 128° |
| 2026-05-07 12:49 | 53.24816 | 0.42131 | 37087 ft | 444 kts | 128° |
| 2026-05-07 12:50 | 53.21857 | 0.48564 | 37090 ft | 444 kts | 128° |
| 2026-05-07 12:50 | 53.18394 | 0.56074 | 37085 ft | 445 kts | 128° |
| 2026-05-07 12:51 | 53.14615 | 0.64242 | 37095 ft | 445 kts | 128° |
| 2026-05-07 12:51 | 53.10828 | 0.72391 | 37098 ft | 445 kts | 128° |
| 2026-05-07 12:52 | 53.07028 | 0.80528 | 37104 ft | 445 kts | 128° |
| 2026-05-07 12:52 | 53.03226 | 0.88657 | 37103 ft | 445 kts | 128° |
| 2026-05-07 12:53 | 52.99511 | 0.96885 | 37104 ft | 445 kts | 121° |
| 2026-05-07 12:53 | 52.97166 | 1.06351 | 37098 ft | 446 kts | 103° |
| 2026-05-07 12:54 | 52.95996 | 1.16471 | 37102 ft | 447 kts | 102° |
| 2026-05-07 12:54 | 52.94815 | 1.26578 | 37101 ft | 447 kts | 102° |
| 2026-05-07 12:55 | 52.93621 | 1.36692 | 37099 ft | 447 kts | 102° |
| 2026-05-07 12:55 | 52.92425 | 1.46813 | 37110 ft | 447 kts | 102° |
| 2026-05-07 12:56 | 52.91231 | 1.56859 | 37108 ft | 448 kts | 102° |
| 2026-05-07 12:56 | 52.90011 | 1.67047 | 37114 ft | 448 kts | 102° |
| 2026-05-07 12:57 | 52.88784 | 1.77179 | 37121 ft | 449 kts | 102° |
| 2026-05-07 12:57 | 52.87567 | 1.87240 | 37129 ft | 449 kts | 102° |
| 2026-05-07 12:58 | 52.86335 | 1.97372 | 37126 ft | 449 kts | 102° |
| 2026-05-07 12:58 | 52.85710 | 2.02429 | 36899 ft | 448 kts | 102° |
| 2026-05-07 12:58 | 52.85085 | 2.07479 | 36645 ft | 447 kts | 102° |
| 2026-05-07 12:59 | 52.84461 | 2.12508 | 36386 ft | 446 kts | 102° |
| 2026-05-07 12:59 | 52.83832 | 2.17535 | 36131 ft | 445 kts | 102° |
| 2026-05-07 12:59 | 52.83202 | 2.22541 | 35877 ft | 444 kts | 102° |
| 2026-05-07 12:59 | 52.82572 | 2.27536 | 35622 ft | 443 kts | 102° |
| 2026-05-07 13:00 | 52.81941 | 2.32529 | 34780 ft | 446 kts | 101° |
| 2026-05-07 13:00 | 52.81306 | 2.37551 | 34100 ft | 445 kts | 101° |
| 2026-05-07 13:00 | 52.80671 | 2.42536 | 33307 ft | 443 kts | 101° |
| 2026-05-07 13:00 | 52.80032 | 2.47538 | 32324 ft | 446 kts | 101° |
| 2026-05-07 13:01 | 52.79392 | 2.52554 | 31263 ft | 447 kts | 101° |
| 2026-05-07 13:01 | 52.78750 | 2.57587 | 30049 ft | 450 kts | 101° |
| 2026-05-07 13:01 | 52.78102 | 2.62645 | 28898 ft | 448 kts | 101° |
| 2026-05-07 13:01 | 52.77456 | 2.67663 | 27831 ft | 446 kts | 102° |
| 2026-05-07 13:02 | 52.76807 | 2.72677 | 26704 ft | 449 kts | 102° |
| 2026-05-07 13:02 | 52.76147 | 2.77745 | 25509 ft | 454 kts | 102° |
| 2026-05-07 13:02 | 52.75478 | 2.82858 | 24329 ft | 458 kts | 102° |
| 2026-05-07 13:02 | 52.74799 | 2.88020 | 23127 ft | 462 kts | 103° |
| 2026-05-07 13:03 | 52.74119 | 2.93176 | 22238 ft | 457 kts | 103° |
| 2026-05-07 13:03 | 52.73298 | 2.98206 | 21408 ft | 452 kts | 110° |
| 2026-05-07 13:03 | 52.72052 | 3.02937 | 20559 ft | 447 kts | 118° |
| 2026-05-07 13:03 | 52.70515 | 3.07365 | 19752 ft | 444 kts | 121° |
| 2026-05-07 13:04 | 52.68968 | 3.11757 | 18940 ft | 442 kts | 121° |
| 2026-05-07 13:04 | 52.67428 | 3.16132 | 18114 ft | 440 kts | 121° |
| 2026-05-07 13:04 | 52.65904 | 3.20473 | 17313 ft | 436 kts | 121° |
| 2026-05-07 13:04 | 52.64395 | 3.24770 | 16571 ft | 431 kts | 120° |
| 2026-05-07 13:05 | 52.62900 | 3.29010 | 15853 ft | 426 kts | 121° |
| 2026-05-07 13:05 | 52.61418 | 3.33205 | 15152 ft | 422 kts | 121° |
| 2026-05-07 13:05 | 52.59953 | 3.37359 | 14470 ft | 417 kts | 120° |
| 2026-05-07 13:05 | 52.58751 | 3.41669 | 13795 ft | 413 kts | 110° |
| 2026-05-07 13:06 | 52.58012 | 3.46204 | 13113 ft | 408 kts | 100° |
| 2026-05-07 13:06 | 52.57540 | 3.50751 | 12485 ft | 401 kts | 100° |
| 2026-05-07 13:06 | 52.57066 | 3.55227 | 11850 ft | 395 kts | 100° |
| 2026-05-07 13:06 | 52.56593 | 3.59629 | 11411 ft | 385 kts | 100° |
| 2026-05-07 13:07 | 52.56133 | 3.63856 | 11282 ft | 367 kts | 101° |
| 2026-05-07 13:07 | 52.55698 | 3.67890 | 11154 ft | 350 kts | 100° |
| 2026-05-07 13:07 | 52.55284 | 3.71746 | 11028 ft | 336 kts | 100° |
| 2026-05-07 13:07 | 52.54883 | 3.75445 | 10907 ft | 322 kts | 101° |
| 2026-05-07 13:08 | 52.54498 | 3.78978 | 10751 ft | 304 kts | 101° |
| 2026-05-07 13:08 | 52.54130 | 3.82334 | 10303 ft | 294 kts | 101° |
| 2026-05-07 13:08 | 52.53770 | 3.85599 | 10031 ft | 289 kts | 101° |
| 2026-05-07 13:08 | 52.53411 | 3.88842 | 9901 ft | 289 kts | 101° |
| 2026-05-07 13:09 | 52.53052 | 3.92091 | 9769 ft | 290 kts | 101° |
| 2026-05-07 13:09 | 52.52695 | 3.95337 | 9637 ft | 288 kts | 101° |
| 2026-05-07 13:09 | 52.52133 | 3.98473 | 9497 ft | 286 kts | 112° |
| 2026-05-07 13:09 | 52.51394 | 4.01512 | 9356 ft | 286 kts | 112° |
| 2026-05-07 13:10 | 52.50652 | 4.04544 | 9223 ft | 286 kts | 112° |
| 2026-05-07 13:10 | 52.49911 | 4.07570 | 9086 ft | 285 kts | 113° |
| 2026-05-07 13:10 | 52.49172 | 4.10589 | 8932 ft | 285 kts | 112° |
| 2026-05-07 13:10 | 52.48438 | 4.13594 | 8699 ft | 283 kts | 112° |
| 2026-05-07 13:11 | 52.47707 | 4.16584 | 8448 ft | 282 kts | 113° |
| 2026-05-07 13:11 | 52.46979 | 4.19555 | 8208 ft | 280 kts | 112° |
| 2026-05-07 13:11 | 52.46253 | 4.22519 | 7960 ft | 279 kts | 113° |
| 2026-05-07 13:11 | 52.45532 | 4.25461 | 7706 ft | 278 kts | 112° |
| 2026-05-07 13:12 | 52.44812 | 4.28390 | 7475 ft | 276 kts | 113° |
| 2026-05-07 13:12 | 52.44095 | 4.31296 | 7238 ft | 274 kts | 112° |
| 2026-05-07 13:12 | 52.43388 | 4.34166 | 7047 ft | 266 kts | 112° |
| 2026-05-07 13:12 | 52.42712 | 4.36909 | 6916 ft | 254 kts | 113° |
| 2026-05-07 13:13 | 52.42064 | 4.39534 | 6781 ft | 242 kts | 112° |
| 2026-05-07 13:13 | 52.41441 | 4.42046 | 6397 ft | 235 kts | 113° |
| 2026-05-07 13:13 | 52.40826 | 4.44527 | 6146 ft | 236 kts | 112° |
| 2026-05-07 13:13 | 52.40206 | 4.47021 | 5926 ft | 236 kts | 112° |
| 2026-05-07 13:14 | 52.39588 | 4.49507 | 5720 ft | 236 kts | 112° |
| 2026-05-07 13:14 | 52.39179 | 4.51151 | 5572 ft | 235 kts | 112° |
| 2026-05-07 13:14 | 52.36998 | 4.56108 | 4816 ft | 241 kts | 158° |
| 2026-05-07 13:15 | 52.35334 | 4.56465 | 4289 ft | 246 kts | 190° |
| 2026-05-07 13:15 | 52.33824 | 4.55316 | 4108 ft | 237 kts | 224° |
| 2026-05-07 13:15 | 52.32853 | 4.53187 | 4124 ft | 235 kts | 240° |
| 2026-05-07 13:15 | 52.32055 | 4.50856 | 4027 ft | 234 kts | 242° |
| 2026-05-07 13:16 | 52.31287 | 4.48512 | 3695 ft | 234 kts | 243° |
| 2026-05-07 13:16 | 52.30524 | 4.46166 | 3349 ft | 234 kts | 243° |
| 2026-05-07 13:16 | 52.29748 | 4.43829 | 3027 ft | 232 kts | 236° |
| 2026-05-07 13:16 | 52.28576 | 4.42155 | 3010 ft | 225 kts | 201° |
| 2026-05-07 13:17 | 52.27046 | 4.41831 | 3012 ft | 222 kts | 168° |
| 2026-05-07 13:17 | 52.25605 | 4.42653 | 3010 ft | 220 kts | 154° |
| 2026-05-07 13:17 | 52.24237 | 4.43689 | 3004 ft | 210 kts | 153° |
| 2026-05-07 13:17 | 52.22956 | 4.44689 | 2977 ft | 193 kts | 152° |
| 2026-05-07 13:18 | 52.22161 | 4.45290 | 2890 ft | 187 kts | 152° |
| 2026-05-07 13:18 | 52.20745 | 4.46579 | 2740 ft | 166 kts | 134° |
| 2026-05-07 13:18 | 52.20117 | 4.48077 | 2419 ft | 159 kts | 109° |
| 2026-05-07 13:18 | 52.19972 | 4.49839 | 2049 ft | 158 kts | 82° |
| 2026-05-07 13:19 | 52.20325 | 4.51504 | 2015 ft | 157 kts | 58° |
| 2026-05-07 13:19 | 52.20716 | 4.52514 | 2011 ft | 157 kts | 56° |
| 2026-05-07 13:19 | 52.21300 | 4.54021 | 1994 ft | 158 kts | 57° |
| 2026-05-07 13:19 | 52.21886 | 4.55532 | 1995 ft | 159 kts | 57° |
| 2026-05-07 13:20 | 52.22475 | 4.57052 | 2004 ft | 158 kts | 57° |
| 2026-05-07 13:20 | 52.23061 | 4.58564 | 1998 ft | 157 kts | 57° |
| 2026-05-07 13:20 | 52.23643 | 4.60071 | 1898 ft | 157 kts | 57° |
| 2026-05-07 13:20 | 52.24224 | 4.61574 | 1717 ft | 151 kts | 56° |
| 2026-05-07 13:21 | 52.24766 | 4.62975 | 1536 ft | 144 kts | 56° |
| 2026-05-07 13:21 | 52.25294 | 4.64342 | 1346 ft | 141 kts | 54° |
| 2026-05-07 13:21 | 52.25809 | 4.65677 | 1159 ft | 137 kts | 54° |
| 2026-05-07 13:21 | 52.26328 | 4.67019 | 984 ft | 140 kts | 54° |
| 2026-05-07 13:22 | 52.26843 | 4.68355 | 788 ft | 139 kts | 56° |
| 2026-05-07 13:22 | 52.27356 | 4.69685 | 618 ft | 137 kts | 56° |
| 2026-05-07 13:22 | 52.27861 | 4.71001 | 412 ft | 136 kts | 56° |
| 2026-05-07 13:22 | 52.28356 | 4.72300 | 238 ft | 133 kts | 56° |
| 2026-05-07 13:23 | 52.28858 | 4.73580 | 57 ft | 133 kts | 56° |
| 2026-05-07 13:23 | 52.29327 | 4.74771 | 1 ft | 110 kts | 59° |
| 2026-05-07 13:23 | 52.29633 | 4.75595 | -1 ft | 60 kts | 58° |
| 2026-05-07 13:23 | 52.29826 | 4.76080 | -4 ft | 47 kts | 58° |
| 2026-05-07 13:24 | 52.29960 | 4.76449 | -3 ft | 26 kts | 55° |
| 2026-05-07 13:24 | 52.30100 | 4.76602 | -1 ft | 24 kts | 27° |
| 2026-05-07 13:24 | 52.30234 | 4.76714 | -1 ft | 17 kts | 27° |
| 2026-05-07 13:24 | 52.30312 | 4.76820 | -1 ft | 15 kts | 53° |
| 2026-05-07 13:25 | 52.30371 | 4.76968 | -1 ft | 16 kts | 58° |
| 2026-05-07 13:25 | 52.30433 | 4.77132 | -1 ft | 18 kts | 58° |
| 2026-05-07 13:25 | 52.30487 | 4.77273 | -1 ft | 7 kts | 58° |
| 2026-05-07 13:25 | 52.30511 | 4.77336 | -1 ft | 6 kts | 58° |
| 2026-05-07 13:26 | 52.30535 | 4.77399 | -1 ft | 7 kts | 58° |
| 2026-05-07 13:26 | 52.30561 | 4.77466 | -1 ft | 8 kts | 58° |
| 2026-05-07 13:26 | 52.30609 | 4.77563 | -1 ft | 13 kts | 31° |
| 2026-05-07 13:26 | 52.30715 | 4.77590 | -1 ft | 18 kts | 3° |
| 2026-05-07 13:27 | 52.30853 | 4.77602 | -1 ft | 22 kts | 3° |
| 2026-05-07 13:27 | 52.31020 | 4.77619 | -1 ft | 26 kts | 4° |
| 2026-05-07 13:27 | 52.31210 | 4.77641 | -1 ft | 29 kts | 4° |
| 2026-05-07 13:27 | 52.31407 | 4.77658 | -1 ft | 21 kts | 354° |
| 2026-05-07 13:28 | 52.31565 | 4.77000 | -1 ft | 26 kts | 266° |
| 2026-05-07 13:28 | 52.31556 | 4.76697 | -1 ft | 28 kts | 268° |
| 2026-05-07 13:29 | 52.31547 | 4.76374 | -1 ft | 29 kts | 266° |
| 2026-05-07 13:29 | 52.31539 | 4.76122 | -1 ft | 21 kts | 268° |
| 2026-05-07 13:29 | 52.31524 | 4.75871 | -1 ft | 23 kts | 265° |
| 2026-05-07 13:29 | 52.31515 | 4.75598 | -1 ft | 24 kts | 267° |
| 2026-05-07 13:30 | 52.31505 | 4.75456 | -1 ft | 10 kts | 239° |
| 2026-05-07 13:30 | 52.31444 | 4.75434 | -1 ft | 9 kts | 178° |
| 2026-05-07 13:30 | 52.31387 | 4.75440 | -1 ft | 8 kts | 176° |
| 2026-05-07 13:30 | 52.31335 | 4.75447 | -1 ft | 7 kts | 174° |
| 2026-05-07 13:31 | 52.31288 | 4.75454 | -1 ft | 6 kts | 175° |
| 2026-05-07 13:31 | 52.31247 | 4.75461 | -1 ft | 6 kts | 174° |
| 2026-05-07 13:31 | 52.31210 | 4.75466 | -1 ft | 5 kts | 174° |
| 2026-05-07 13:31 | 52.31174 | 4.75473 | -1 ft | 6 kts | 169° |
| 2026-05-07 13:32 | 52.31140 | 4.75497 | -1 ft | 5 kts | 150° |
| 2026-05-07 13:32 | 52.31112 | 4.75524 | -1 ft | 4 kts | 148° |
| 2026-05-07 13:32 | 52.31089 | 4.75549 | -1 ft | 4 kts | 147° |
| 2026-05-07 13:32 | 52.31069 | 4.75569 | -1 ft | 3 kts | 148° |
| 2026-05-07 13:33 | 52.31067 | 4.75571 | -1 ft | 0 kts | 148° |
| 2026-05-07 13:33 | 52.31066 | 4.75572 | -1 ft | 0 kts | 148° |